Time;durP1;ratioP1;P1;durP2;ratioP2;P2;SDS_P1;SDS_P2;PMS_P1;PMS_P2;Temp;Humidity;BMP_temperature;BMP_pressure;BME280_temperature;BME280_humidity;BME280_pressure;Samples;Min_cycle;Max_cycle;Signal;HPM_P1;HPM_P2
2023/04/14 00:02:10;;;;;;;9.05;3.67;;;;;;;;;;4932552;28;20051;-76
2023/04/14 00:04:37;;;;;;;10.27;4.25;;;;;;;;;;4918018;29;20091;-78
2023/04/14 00:07:07;;;;;;;10.25;4.03;;;;;;;;;;4914081;29;20063;-76
2023/04/14 00:09:33;;;;;;;6.00;3.50;;;;;;;;;;4912105;29;20040;-77
2023/04/14 00:12:00;;;;;;;8.95;3.55;;;;;;;;;;4911874;29;20069;-79
2023/04/14 00:14:27;;;;;;;8.68;3.55;;;;;;;;;;4913268;29;20381;-77
2023/04/14 00:16:53;;;;;;;6.95;3.15;;;;;;;;;;4912250;29;20072;-78
2023/04/14 00:19:21;;;;;;;9.27;3.45;;;;;;;;;;4912558;29;20037;-77
2023/04/14 00:21:47;;;;;;;17.00;5.00;;;;;;;;;;4923650;28;20121;-77
2023/04/14 00:24:14;;;;;;;14.02;4.70;;;;;;;;;;4942240;29;20043;-77
2023/04/14 00:26:41;;;;;;;13.23;5.20;;;;;;;;;;4932097;29;20048;-77
2023/04/14 00:29:08;;;;;;;11.90;4.38;;;;;;;;;;4925318;29;20048;-77
2023/04/14 00:31:36;;;;;;;16.25;5.32;;;;;;;;;;4945844;29;20035;-77
2023/04/14 00:34:03;;;;;;;10.88;4.82;;;;;;;;;;4908663;29;20048;-77
2023/04/14 00:36:31;;;;;;;11.25;4.07;;;;;;;;;;4930914;28;20039;-76
2023/04/14 00:38:59;;;;;;;12.20;5.00;;;;;;;;;;4929420;29;20567;-76
2023/04/14 00:41:25;;;;;;;17.42;5.25;;;;;;;;;;4931625;28;20067;-77
2023/04/14 00:43:53;;;;;;;14.48;4.80;;;;;;;;;;4955249;29;20079;-79
2023/04/14 00:46:20;;;;;;;9.27;3.65;;;;;;;;;;4942919;29;20039;-80
2023/04/14 00:48:47;;;;;;;9.10;4.30;;;;;;;;;;4941590;28;20043;-78
2023/04/14 00:51:14;;;;;;;10.32;4.05;;;;;;;;;;4943286;28;20047;-78
2023/04/14 00:53:41;;;;;;;8.63;3.90;;;;;;;;;;4936402;29;20452;-77
2023/04/14 00:56:08;;;;;;;9.48;3.67;;;;;;;;;;4936792;28;20091;-76
2023/04/14 00:58:35;;;;;;;11.38;4.18;;;;;;;;;;4937308;28;20102;-77
2023/04/14 01:01:03;;;;;;;10.48;4.47;;;;;;;;;;4938516;29;20051;-74
2023/04/14 01:03:31;;;;;;;9.20;3.33;;;;;;;;;;4938397;28;20060;-76
2023/04/14 01:05:58;;;;;;;11.25;3.72;;;;;;;;;;4937026;29;20058;-77
2023/04/14 01:08:26;;;;;;;9.20;3.63;;;;;;;;;;4921099;29;20079;-77
2023/04/14 01:11:11;;;;;;;10.18;3.45;;;;;;;;;;4936553;28;20059;-77
2023/04/14 01:13:37;;;;;;;5.43;2.33;;;;;;;;;;4935087;29;20102;-76
2023/04/14 01:16:08;;;;;;;8.27;3.67;;;;;;;;;;4935611;29;20280;-77
2023/04/14 01:18:44;;;;;;;11.65;3.45;;;;;;;;;;4918964;29;20047;-76
2023/04/14 01:21:13;;;;;;;8.75;3.42;;;;;;;;;;4918719;28;20039;-76
2023/04/14 01:23:58;;;;;;;8.23;3.58;;;;;;;;;;4910266;29;20457;-76
2023/04/14 01:26:29;;;;;;;10.80;3.97;;;;;;;;;;4934200;29;20071;-76
2023/04/14 01:28:59;;;;;;;7.50;3.67;;;;;;;;;;4934457;29;20295;-77
2023/04/14 01:31:37;;;;;;;9.30;3.65;;;;;;;;;;4934085;29;20166;-76
2023/04/14 01:34:30;;;;;;;8.52;3.70;;;;;;;;;;4934159;29;20066;-77
2023/04/14 01:37:01;;;;;;;12.20;3.78;;;;;;;;;;4930655;29;20106;-78
2023/04/14 01:39:31;;;;;;;7.38;3.88;;;;;;;;;;4934939;29;20043;-78
2023/04/14 01:41:58;;;;;;;9.02;3.67;;;;;;;;;;4933933;29;20130;-76
2023/04/14 01:44:26;;;;;;;6.88;3.40;;;;;;;;;;4936502;28;20044;-77
2023/04/14 01:46:56;;;;;;;8.40;3.90;;;;;;;;;;4934727;28;20043;-78
2023/04/14 01:49:23;;;;;;;6.05;3.33;;;;;;;;;;4936651;28;20054;-76
2023/04/14 01:51:50;;;;;;;10.68;3.80;;;;;;;;;;4935999;28;20059;-78
2023/04/14 01:54:17;;;;;;;9.23;3.75;;;;;;;;;;4929830;28;20099;-78
2023/04/14 01:56:45;;;;;;;9.43;3.90;;;;;;;;;;4932554;28;20062;-76
2023/04/14 01:59:12;;;;;;;6.53;3.58;;;;;;;;;;4931153;28;20032;-77
2023/04/14 02:01:40;;;;;;;8.13;3.92;;;;;;;;;;4932037;28;20473;-78
2023/04/14 02:04:07;;;;;;;8.82;4.13;;;;;;;;;;4931723;28;20048;-76
2023/04/14 02:06:35;;;;;;;10.70;3.85;;;;;;;;;;4933768;28;20047;-76
2023/04/14 02:09:04;;;;;;;7.90;4.00;;;;;;;;;;4930761;29;20051;-76
2023/04/14 02:11:31;;;;;;;9.10;4.43;;;;;;;;;;4929846;29;20134;-78
2023/04/14 02:13:59;;;;;;;10.90;4.40;;;;;;;;;;4930546;28;20052;-77
2023/04/14 02:16:27;;;;;;;11.80;4.32;;;;;;;;;;4933345;28;20082;-77
2023/04/14 02:18:54;;;;;;;9.40;4.43;;;;;;;;;;4933051;28;20059;-78
2023/04/14 02:21:23;;;;;;;13.30;6.13;;;;;;;;;;4931273;28;20421;-78
2023/04/14 02:23:50;;;;;;;16.70;5.90;;;;;;;;;;4931716;28;20075;-76
2023/04/14 02:26:20;;;;;;;16.73;6.88;;;;;;;;;;4918292;29;20046;-76
2023/04/14 02:28:52;;;;;;;14.18;6.03;;;;;;;;;;4933771;29;20039;-74
2023/04/14 02:31:22;;;;;;;22.40;9.48;;;;;;;;;;4932575;29;20055;-76
2023/04/14 02:33:52;;;;;;;29.45;10.65;;;;;;;;;;4932635;29;20652;-76
2023/04/14 02:36:22;;;;;;;24.63;8.80;;;;;;;;;;4933811;28;20551;-76
2023/04/14 02:38:54;;;;;;;20.30;8.15;;;;;;;;;;4932639;29;20404;-76
2023/04/14 02:41:23;;;;;;;18.23;7.55;;;;;;;;;;4931994;29;20478;-76
2023/04/14 02:44:00;;;;;;;17.08;7.88;;;;;;;;;;4924227;28;20051;-77
2023/04/14 02:46:30;;;;;;;16.85;7.53;;;;;;;;;;4931467;29;20305;-77
2023/04/14 02:48:59;;;;;;;13.20;6.57;;;;;;;;;;4931353;28;20143;-78
2023/04/14 02:51:27;;;;;;;16.10;5.95;;;;;;;;;;4930370;29;20047;-78
2023/04/14 02:53:54;;;;;;;11.05;5.25;;;;;;;;;;4929805;28;20062;-78
2023/04/14 02:56:37;;;;;;;7.90;4.50;;;;;;;;;;4930452;29;20123;-77
2023/04/14 02:59:04;;;;;;;12.73;5.25;;;;;;;;;;4931065;29;20063;-76
2023/04/14 03:01:32;;;;;;;9.98;5.00;;;;;;;;;;4930585;29;20051;-76
2023/04/14 03:04:00;;;;;;;10.27;5.28;;;;;;;;;;4930955;29;20528;-76
2023/04/14 03:06:30;;;;;;;15.70;5.93;;;;;;;;;;4930980;29;20095;-77
2023/04/14 03:08:58;;;;;;;13.57;6.00;;;;;;;;;;4931970;28;20055;-77
2023/04/14 03:11:27;;;;;;;11.85;5.43;;;;;;;;;;4930824;28;20048;-78
2023/04/14 03:13:55;;;;;;;11.07;5.30;;;;;;;;;;4931258;29;20051;-77
2023/04/14 03:16:22;;;;;;;11.07;5.28;;;;;;;;;;4931379;29;20110;-77
2023/04/14 03:18:50;;;;;;;9.48;4.82;;;;;;;;;;4930839;28;20067;-78
2023/04/14 03:21:18;;;;;;;10.93;4.95;;;;;;;;;;4931869;29;20070;-77
2023/04/14 03:23:45;;;;;;;10.02;4.90;;;;;;;;;;4913305;28;20107;-77
2023/04/14 03:26:13;;;;;;;9.30;4.63;;;;;;;;;;4929821;29;20098;-77
2023/04/14 03:28:41;;;;;;;9.68;4.85;;;;;;;;;;4931963;29;20464;-78
2023/04/14 03:31:10;;;;;;;9.48;5.07;;;;;;;;;;4932251;28;20115;-77
2023/04/14 03:33:47;;;;;;;9.52;4.70;;;;;;;;;;4930520;29;20050;-77
2023/04/14 03:36:16;;;;;;;10.60;5.10;;;;;;;;;;4930620;29;20111;-77
2023/04/14 03:38:44;;;;;;;9.07;4.68;;;;;;;;;;4913734;29;20610;-79
2023/04/14 03:41:12;;;;;;;9.68;5.00;;;;;;;;;;4930281;29;20044;-77
2023/04/14 03:43:40;;;;;;;12.50;4.82;;;;;;;;;;4930942;29;20051;-76
2023/04/14 03:46:10;;;;;;;12.45;5.00;;;;;;;;;;4933725;28;20051;-77
2023/04/14 03:48:43;;;;;;;10.20;5.50;;;;;;;;;;4932036;28;20559;-76
2023/04/14 03:51:12;;;;;;;9.75;5.35;;;;;;;;;;4930211;29;20143;-76
2023/04/14 03:53:40;;;;;;;11.88;5.68;;;;;;;;;;4928961;29;20126;-76
2023/04/14 03:56:09;;;;;;;11.50;6.30;;;;;;;;;;4929827;29;20067;-78
2023/04/14 03:58:36;;;;;;;15.50;6.22;;;;;;;;;;4930155;29;20067;-78
2023/04/14 04:01:03;;;;;;;10.48;5.70;;;;;;;;;;4930050;29;20047;-76
2023/04/14 04:03:32;;;;;;;9.70;5.53;;;;;;;;;;4930076;29;20053;-76
2023/04/14 04:06:01;;;;;;;11.48;5.32;;;;;;;;;;4931019;29;20500;-76
2023/04/14 04:08:29;;;;;;;11.00;5.82;;;;;;;;;;4930217;29;20099;-77
2023/04/14 04:10:56;;;;;;;9.43;5.68;;;;;;;;;;4927867;29;20521;-78
2023/04/14 04:13:24;;;;;;;16.75;6.18;;;;;;;;;;4928505;29;20090;-78
2023/04/14 04:15:51;;;;;;;12.63;6.40;;;;;;;;;;4931028;29;20044;-77
2023/04/14 04:18:19;;;;;;;12.13;6.20;;;;;;;;;;4928884;29;20576;-77
2023/04/14 04:20:46;;;;;;;13.52;6.10;;;;;;;;;;4929200;29;20048;-77
2023/04/14 04:23:15;;;;;;;12.93;6.43;;;;;;;;;;4927840;29;20051;-78
2023/04/14 04:25:43;;;;;;;11.05;6.22;;;;;;;;;;4927798;29;20130;-77
2023/04/14 04:28:28;;;;;;;13.75;6.30;;;;;;;;;;4929156;29;20072;-77
2023/04/14 04:30:57;;;;;;;12.68;6.50;;;;;;;;;;4929728;29;20222;-77
2023/04/14 04:33:25;;;;;;;12.32;6.63;;;;;;;;;;4928530;29;20047;-78
2023/04/14 04:35:53;;;;;;;13.32;6.30;;;;;;;;;;4929553;29;20111;-78
2023/04/14 04:38:22;;;;;;;10.77;6.25;;;;;;;;;;4929437;28;20094;-77
2023/04/14 04:40:50;;;;;;;13.73;6.90;;;;;;;;;;4927849;29;20137;-77
2023/04/14 04:43:21;;;;;;;14.43;6.90;;;;;;;;;;4914052;29;20054;-78
2023/04/14 04:46:14;;;;;;;11.25;6.43;;;;;;;;;;4929645;29;20463;-77
2023/04/14 04:48:41;;;;;;;9.93;6.10;;;;;;;;;;4929557;28;20086;-78
2023/04/14 04:51:08;;;;;;;12.98;6.32;;;;;;;;;;4930163;28;20055;-77
2023/04/14 04:53:35;;;;;;;10.60;6.15;;;;;;;;;;4930352;29;20504;-76
2023/04/14 04:56:02;;;;;;;11.82;6.00;;;;;;;;;;4928520;29;20325;-78
2023/04/14 04:58:29;;;;;;;8.63;5.68;;;;;;;;;;4930995;29;20043;-79
2023/04/14 05:00:56;;;;;;;13.32;5.82;;;;;;;;;;4930072;29;20500;-78
2023/04/14 05:03:23;;;;;;;9.27;5.80;;;;;;;;;;4929828;28;20110;-78
2023/04/14 05:05:49;;;;;;;11.57;6.13;;;;;;;;;;4930542;29;20052;-77
2023/04/14 05:08:16;;;;;;;9.98;5.43;;;;;;;;;;4930170;29;20047;-79
2023/04/14 05:10:43;;;;;;;11.88;5.90;;;;;;;;;;4930385;29;20063;-77
2023/04/14 05:13:09;;;;;;;12.27;7.03;;;;;;;;;;4930176;29;20504;-77
2023/04/14 05:15:36;;;;;;;11.57;6.10;;;;;;;;;;4928796;29;20098;-77
2023/04/14 05:18:02;;;;;;;13.38;6.28;;;;;;;;;;4930056;29;20505;-76
2023/04/14 05:20:29;;;;;;;15.35;6.68;;;;;;;;;;4932098;28;20047;-76
2023/04/14 05:22:56;;;;;;;10.73;6.18;;;;;;;;;;4931887;28;20134;-77
2023/04/14 05:25:22;;;;;;;12.18;6.20;;;;;;;;;;4948391;28;20040;-77
2023/04/14 05:27:51;;;;;;;14.25;5.97;;;;;;;;;;4939467;28;20043;-77
2023/04/14 05:30:18;;;;;;;11.45;6.03;;;;;;;;;;4939832;28;20416;-78
2023/04/14 05:32:45;;;;;;;12.02;6.38;;;;;;;;;;4922316;28;20066;-77
2023/04/14 05:35:11;;;;;;;11.77;5.82;;;;;;;;;;4942146;28;20039;-76
2023/04/14 05:37:38;;;;;;;11.10;6.03;;;;;;;;;;4924318;28;20496;-78
2023/04/14 05:40:05;;;;;;;10.85;6.55;;;;;;;;;;4931172;28;20051;-77
2023/04/14 05:42:32;;;;;;;12.68;7.03;;;;;;;;;;4930035;28;20059;-78
2023/04/14 05:44:58;;;;;;;15.38;7.68;;;;;;;;;;4936912;28;20135;-77
2023/04/14 05:47:25;;;;;;;12.00;7.20;;;;;;;;;;4932928;29;20452;-78
2023/04/14 05:49:51;;;;;;;13.60;7.20;;;;;;;;;;4933989;29;20516;-77
2023/04/14 05:52:18;;;;;;;15.18;7.22;;;;;;;;;;4929283;28;20052;-75
2023/04/14 05:54:45;;;;;;;13.27;6.35;;;;;;;;;;4923149;29;20059;-76
2023/04/14 05:57:11;;;;;;;12.50;7.07;;;;;;;;;;4925488;29;20093;-77
2023/04/14 05:59:38;;;;;;;15.10;8.15;;;;;;;;;;4925349;28;20047;-77
2023/04/14 06:02:06;;;;;;;15.45;8.45;;;;;;;;;;4932196;28;20137;-78
2023/04/14 06:04:32;;;;;;;14.52;8.23;;;;;;;;;;4944783;28;20241;-76
2023/04/14 06:07:01;;;;;;;12.13;7.97;;;;;;;;;;4937464;28;20134;-77
2023/04/14 06:09:28;;;;;;;15.90;8.20;;;;;;;;;;4925918;28;20054;-77
2023/04/14 06:11:55;;;;;;;20.40;8.43;;;;;;;;;;4926727;29;20070;-78
2023/04/14 06:14:22;;;;;;;16.58;7.97;;;;;;;;;;4925291;29;20142;-78
2023/04/14 06:16:49;;;;;;;13.35;7.78;;;;;;;;;;4931506;28;20157;-78
2023/04/14 06:19:17;;;;;;;13.50;7.75;;;;;;;;;;4934294;29;20083;-78
2023/04/14 06:21:45;;;;;;;13.95;7.60;;;;;;;;;;4926580;29;20048;-77
2023/04/14 06:24:12;;;;;;;14.27;7.32;;;;;;;;;;4923061;29;20165;-78
2023/04/14 06:26:38;;;;;;;16.00;8.00;;;;;;;;;;4926302;28;20061;-78
2023/04/14 06:29:06;;;;;;;14.57;8.57;;;;;;;;;;4945897;28;20062;-78
2023/04/14 06:31:33;;;;;;;17.88;8.30;;;;;;;;;;4937677;28;20179;-77
2023/04/14 06:34:01;;;;;;;19.48;8.23;;;;;;;;;;4925779;28;20175;-78
2023/04/14 06:36:27;;;;;;;14.55;7.53;;;;;;;;;;4922399;29;20082;-78
2023/04/14 06:38:55;;;;;;;14.80;8.63;;;;;;;;;;4924060;29;20048;-78
2023/04/14 06:41:22;;;;;;;18.35;8.73;;;;;;;;;;4890740;29;20131;-77
2023/04/14 06:43:48;;;;;;;16.17;9.43;;;;;;;;;;4924076;28;20059;-76
2023/04/14 06:46:16;;;;;;;15.52;9.00;;;;;;;;;;4930571;29;20229;-76
2023/04/14 06:48:43;;;;;;;19.50;10.00;;;;;;;;;;4940219;28;20039;-77
2023/04/14 06:51:11;;;;;;;16.77;8.80;;;;;;;;;;4944501;28;20054;-76
2023/04/14 06:53:37;;;;;;;18.98;9.23;;;;;;;;;;4925252;28;20074;-76
2023/04/14 06:56:05;;;;;;;15.05;8.30;;;;;;;;;;4931340;28;20154;-75
2023/04/14 06:58:32;;;;;;;18.67;9.43;;;;;;;;;;4921003;28;20051;-77
2023/04/14 07:01:00;;;;;;;20.42;9.68;;;;;;;;;;4926655;28;20513;-78
2023/04/14 07:03:30;;;;;;;17.02;9.38;;;;;;;;;;4906893;29;20051;-76
2023/04/14 07:06:07;;;;;;;17.40;9.50;;;;;;;;;;4921975;29;20042;-78
2023/04/14 07:08:35;;;;;;;19.65;9.70;;;;;;;;;;4936175;29;20058;-78
2023/04/14 07:11:02;;;;;;;22.05;10.25;;;;;;;;;;4922533;28;20047;-76
2023/04/14 07:13:34;;;;;;;20.10;11.10;;;;;;;;;;4939176;28;20051;-77
2023/04/14 07:16:01;;;;;;;21.63;10.27;;;;;;;;;;4925575;29;20130;-75
2023/04/14 07:18:29;;;;;;;20.83;12.00;;;;;;;;;;4924557;29;20590;-78
2023/04/14 07:20:56;;;;;;;23.08;12.65;;;;;;;;;;4905368;29;20051;-78
2023/04/14 07:23:23;;;;;;;23.73;12.85;;;;;;;;;;4923769;28;20047;-78
2023/04/14 07:25:51;;;;;;;24.42;13.77;;;;;;;;;;4923310;28;20806;-78
2023/04/14 07:28:20;;;;;;;33.95;15.35;;;;;;;;;;4929709;28;20163;-78
2023/04/14 07:30:48;;;;;;;32.88;14.30;;;;;;;;;;4937632;28;20043;-76
2023/04/14 07:33:18;;;;;;;24.92;13.25;;;;;;;;;;4926993;28;20532;-77
2023/04/14 07:35:45;;;;;;;24.67;12.70;;;;;;;;;;4928691;28;20134;-77
2023/04/14 07:38:28;;;;;;;23.38;12.65;;;;;;;;;;4930183;28;20142;-77
2023/04/14 07:40:55;;;;;;;23.27;12.75;;;;;;;;;;4921874;29;20086;-77
2023/04/14 07:43:25;;;;;;;24.65;13.30;;;;;;;;;;4937751;28;20384;-75
2023/04/14 07:45:52;;;;;;;29.83;14.52;;;;;;;;;;4931331;28;20110;-77
2023/04/14 07:48:20;;;;;;;24.90;14.60;;;;;;;;;;4917360;28;20106;-76
2023/04/14 07:50:48;;;;;;;28.70;15.23;;;;;;;;;;4930995;28;20379;-75
2023/04/14 07:53:16;;;;;;;24.92;14.18;;;;;;;;;;4924509;28;20602;-75
2023/04/14 07:55:43;;;;;;;24.95;14.95;;;;;;;;;;4921545;29;20055;-74
2023/04/14 07:58:10;;;;;;;27.45;15.40;;;;;;;;;;4928628;28;20047;-75
2023/04/14 08:00:42;;;;;;;26.65;14.73;;;;;;;;;;4933045;29;20134;-79
2023/04/14 08:03:08;;;;;;;26.58;15.25;;;;;;;;;;4944854;28;20120;-77
2023/04/14 08:05:41;;;;;;;26.88;14.65;;;;;;;;;;4947726;28;20047;-77
2023/04/14 08:08:08;;;;;;;29.70;14.98;;;;;;;;;;4947821;28;20050;-77
2023/04/14 08:10:37;;;;;;;26.85;14.25;;;;;;;;;;4945506;28;20359;-77
2023/04/14 08:13:04;;;;;;;25.40;14.65;;;;;;;;;;4946909;28;20453;-79
2023/04/14 08:15:31;;;;;;;27.55;14.95;;;;;;;;;;4948049;28;20059;-77
2023/04/14 08:17:58;;;;;;;30.52;15.35;;;;;;;;;;4947226;28;20132;-77
2023/04/14 08:20:25;;;;;;;31.88;15.52;;;;;;;;;;4931835;28;20423;-77
2023/04/14 08:22:52;;;;;;;30.67;16.13;;;;;;;;;;4932876;28;20496;-76
2023/04/14 08:25:19;;;;;;;28.60;15.27;;;;;;;;;;4926966;28;20185;-75
2023/04/14 08:27:46;;;;;;;29.55;15.25;;;;;;;;;;4929241;28;20423;-76
2023/04/14 08:30:13;;;;;;;28.10;14.52;;;;;;;;;;4928567;28;20122;-77
2023/04/14 08:32:39;;;;;;;31.67;14.95;;;;;;;;;;4927632;29;20091;-76
2023/04/14 08:35:07;;;;;;;23.83;15.15;;;;;;;;;;4929917;28;20417;-80
2023/04/14 08:37:54;;;;;;;22.33;14.23;;;;;;;;;;4928379;28;20142;-78
2023/04/14 08:40:22;;;;;;;22.25;14.25;;;;;;;;;;4909437;28;20054;-78
2023/04/14 08:42:49;;;;;;;22.05;13.77;;;;;;;;;;4927665;28;20510;-78
2023/04/14 08:45:18;;;;;;;24.58;14.50;;;;;;;;;;4929792;28;20051;-78
2023/04/14 08:47:46;;;;;;;26.50;15.10;;;;;;;;;;4931806;28;20083;-78
2023/04/14 08:50:15;;;;;;;22.33;14.27;;;;;;;;;;4930946;28;20261;-77
2023/04/14 08:52:44;;;;;;;22.75;14.30;;;;;;;;;;4930937;28;20040;-78
2023/04/14 08:55:10;;;;;;;23.80;14.10;;;;;;;;;;4927362;29;20173;-79
2023/04/14 08:57:39;;;;;;;25.33;13.98;;;;;;;;;;4927633;28;20988;-77
2023/04/14 09:00:06;;;;;;;27.35;14.65;;;;;;;;;;4930129;28;20047;-79
2023/04/14 09:02:33;;;;;;;25.92;15.05;;;;;;;;;;4930559;28;20087;-78
2023/04/14 09:05:00;;;;;;;21.80;13.15;;;;;;;;;;4934042;28;20476;-77
2023/04/14 09:07:27;;;;;;;21.52;12.80;;;;;;;;;;4934882;28;20048;-78
2023/04/14 09:09:59;;;;;;;22.08;13.30;;;;;;;;;;4932390;28;20115;-78
2023/04/14 09:12:26;;;;;;;23.30;12.90;;;;;;;;;;4932551;28;20047;-79
2023/04/14 09:14:55;;;;;;;23.38;12.23;;;;;;;;;;4935019;28;20047;-77
2023/04/14 09:17:29;;;;;;;19.08;11.15;;;;;;;;;;4935452;28;20052;-78
2023/04/14 09:19:57;;;;;;;20.02;11.90;;;;;;;;;;4935598;28;20058;-78
2023/04/14 09:22:45;;;;;;;22.70;11.52;;;;;;;;;;4923138;29;20047;-78
2023/04/14 09:25:13;;;;;;;27.38;13.50;;;;;;;;;;4925070;29;20047;-78
2023/04/14 09:27:41;;;;;;;21.73;11.63;;;;;;;;;;4922714;29;20040;-78
2023/04/14 09:30:08;;;;;;;18.02;11.25;;;;;;;;;;4921499;29;20379;-78
2023/04/14 09:32:37;;;;;;;20.98;10.82;;;;;;;;;;4920742;29;20048;-77
2023/04/14 09:35:05;;;;;;;20.15;11.90;;;;;;;;;;4921261;29;20154;-78
2023/04/14 09:37:43;;;;;;;18.88;10.75;;;;;;;;;;4922583;29;20299;-78
2023/04/14 09:40:10;;;;;;;19.13;11.18;;;;;;;;;;4918229;29;20063;-78
2023/04/14 09:42:41;;;;;;;17.75;11.07;;;;;;;;;;4921536;29;20457;-79
2023/04/14 09:45:08;;;;;;;17.17;10.85;;;;;;;;;;4923264;29;20047;-77
2023/04/14 09:47:37;;;;;;;17.67;9.73;;;;;;;;;;4922415;29;20058;-77
2023/04/14 09:50:04;;;;;;;16.23;9.45;;;;;;;;;;4940731;28;20480;-78
2023/04/14 09:52:39;;;;;;;18.20;9.27;;;;;;;;;;4939752;28;20063;-78
2023/04/14 09:55:14;;;;;;;15.95;9.05;;;;;;;;;;4931437;28;20052;-77
2023/04/14 09:57:43;;;;;;;13.98;8.45;;;;;;;;;;4937262;28;20079;-77
2023/04/14 10:00:16;;;;;;;13.02;7.43;;;;;;;;;;4939110;28;20047;-77
2023/04/14 10:02:48;;;;;;;10.77;6.82;;;;;;;;;;4931436;28;20126;-78
2023/04/14 10:05:17;;;;;;;12.68;7.00;;;;;;;;;;4939725;28;20456;-78
2023/04/14 10:07:45;;;;;;;11.32;6.10;;;;;;;;;;4936475;28;20427;-76
2023/04/14 10:10:14;;;;;;;9.02;5.60;;;;;;;;;;4932793;28;20056;-78
2023/04/14 10:12:44;;;;;;;10.05;5.57;;;;;;;;;;4932273;28;20047;-77
2023/04/14 10:15:11;;;;;;;10.88;6.05;;;;;;;;;;4931296;28;20251;-77
2023/04/14 10:17:39;;;;;;;9.85;5.97;;;;;;;;;;4936260;28;20130;-76
2023/04/14 10:20:06;;;;;;;7.97;5.22;;;;;;;;;;4942435;28;20459;-76
2023/04/14 10:22:57;;;;;;;10.52;5.30;;;;;;;;;;4926837;28;20055;-77
2023/04/14 10:25:26;;;;;;;8.65;5.32;;;;;;;;;;4938877;28;20043;-78
2023/04/14 10:27:53;;;;;;;8.30;4.97;;;;;;;;;;4943593;28;20043;-76
2023/04/14 10:30:20;;;;;;;10.10;4.88;;;;;;;;;;4916256;29;20055;-76
2023/04/14 10:32:48;;;;;;;9.05;4.82;;;;;;;;;;4909214;29;20095;-75
2023/04/14 10:35:17;;;;;;;9.43;4.63;;;;;;;;;;4911787;29;20131;-76
2023/04/14 10:37:53;;;;;;;8.48;5.07;;;;;;;;;;4911004;29;20509;-76
2023/04/14 10:40:20;;;;;;;9.15;4.80;;;;;;;;;;4909772;29;20129;-78
2023/04/14 10:42:55;;;;;;;11.75;4.78;;;;;;;;;;4913367;29;20048;-77
2023/04/14 10:45:22;;;;;;;8.05;4.47;;;;;;;;;;4918174;29;20173;-74
2023/04/14 10:47:49;;;;;;;9.65;4.55;;;;;;;;;;4913055;29;20115;-75
2023/04/14 10:50:17;;;;;;;7.80;4.40;;;;;;;;;;4894787;29;20056;-76
2023/04/14 10:52:57;;;;;;;9.90;5.03;;;;;;;;;;4911089;29;20044;-76
2023/04/14 10:55:25;;;;;;;9.18;4.70;;;;;;;;;;4910528;29;20048;-77
2023/04/14 10:58:01;;;;;;;12.68;5.78;;;;;;;;;;4910303;29;20127;-75
2023/04/14 11:00:30;;;;;;;6.47;4.50;;;;;;;;;;4912520;29;20135;-75
2023/04/14 11:03:02;;;;;;;7.97;4.70;;;;;;;;;;4912257;29;20043;-77
2023/04/14 11:05:33;;;;;;;8.70;4.35;;;;;;;;;;4909525;29;20111;-75
2023/04/14 11:08:16;;;;;;;6.78;3.72;;;;;;;;;;4912719;29;20048;-77
2023/04/14 11:10:48;;;;;;;8.88;4.03;;;;;;;;;;4911582;29;20052;-77
2023/04/14 11:13:15;;;;;;;7.38;2.60;;;;;;;;;;4908082;29;20063;-77
2023/04/14 11:15:46;;;;;;;5.25;2.50;;;;;;;;;;4911740;29;20465;-76
2023/04/14 11:18:18;;;;;;;4.15;2.53;;;;;;;;;;4934659;28;20055;-76
2023/04/14 11:20:50;;;;;;;6.78;2.97;;;;;;;;;;4936453;28;20055;-75
2023/04/14 11:23:16;;;;;;;5.57;3.33;;;;;;;;;;4930192;28;20043;-76
2023/04/14 11:25:44;;;;;;;6.95;3.55;;;;;;;;;;4935060;28;20051;-77
2023/04/14 11:28:11;;;;;;;7.45;2.97;;;;;;;;;;4929525;28;20047;-77
2023/04/14 11:30:41;;;;;;;6.07;2.83;;;;;;;;;;4940354;28;20427;-76
2023/04/14 11:33:07;;;;;;;5.85;2.80;;;;;;;;;;4949260;28;20047;-77
2023/04/14 11:35:36;;;;;;;9.60;3.17;;;;;;;;;;4949969;28;20039;-77
2023/04/14 11:38:03;;;;;;;4.95;2.90;;;;;;;;;;4948448;28;20062;-77
2023/04/14 11:40:30;;;;;;;5.60;2.58;;;;;;;;;;4948216;28;20122;-77
2023/04/14 11:42:57;;;;;;;4.55;2.47;;;;;;;;;;4947846;28;20126;-76
2023/04/14 11:45:27;;;;;;;4.15;2.67;;;;;;;;;;4949623;28;20051;-74
2023/04/14 11:47:56;;;;;;;6.30;2.90;;;;;;;;;;4949688;28;20131;-76
2023/04/14 11:50:24;;;;;;;4.22;2.45;;;;;;;;;;4949133;28;20051;-76
2023/04/14 11:52:54;;;;;;;4.82;3.00;;;;;;;;;;4948554;28;20048;-77
2023/04/14 11:55:23;;;;;;;7.97;3.00;;;;;;;;;;4945947;28;20130;-77
2023/04/14 11:57:51;;;;;;;4.85;2.85;;;;;;;;;;4945699;28;20035;-76
2023/04/14 12:00:18;;;;;;;7.82;3.20;;;;;;;;;;4947405;28;20043;-76
2023/04/14 12:02:46;;;;;;;6.88;3.30;;;;;;;;;;4947722;28;20659;-77
2023/04/14 12:05:17;;;;;;;5.00;3.40;;;;;;;;;;4948763;28;20043;-76
2023/04/14 12:07:46;;;;;;;5.50;3.33;;;;;;;;;;4947844;28;20138;-76
2023/04/14 12:10:13;;;;;;;5.90;3.42;;;;;;;;;;4929006;28;20061;-76
2023/04/14 12:12:40;;;;;;;5.30;3.50;;;;;;;;;;4945243;28;20136;-77
2023/04/14 12:15:09;;;;;;;4.70;3.08;;;;;;;;;;4948487;28;20105;-77
2023/04/14 12:17:37;;;;;;;4.80;3.20;;;;;;;;;;4948766;28;20047;-77
2023/04/14 12:20:04;;;;;;;4.80;2.80;;;;;;;;;;4948631;28;20043;-76
2023/04/14 12:22:32;;;;;;;6.13;2.70;;;;;;;;;;4936160;28;20081;-76
2023/04/14 12:25:08;;;;;;;4.28;2.42;;;;;;;;;;4925617;28;20051;-77
2023/04/14 12:27:36;;;;;;;4.45;2.63;;;;;;;;;;4929372;28;20048;-78
2023/04/14 12:30:04;;;;;;;6.47;3.17;;;;;;;;;;4932123;28;20043;-76
2023/04/14 12:32:42;;;;;;;5.28;3.10;;;;;;;;;;4937098;29;20525;-77
2023/04/14 12:35:09;;;;;;;6.32;3.50;;;;;;;;;;4931997;28;20063;-74
2023/04/14 12:37:40;;;;;;;5.80;3.58;;;;;;;;;;4928856;28;20044;-76
2023/04/14 12:40:07;;;;;;;5.88;3.70;;;;;;;;;;4927224;28;20516;-78
2023/04/14 12:42:46;;;;;;;9.10;4.32;;;;;;;;;;4931243;28;20047;-73
2023/04/14 12:45:13;;;;;;;8.85;5.13;;;;;;;;;;4929783;28;20503;-75
2023/04/14 12:47:40;;;;;;;22.65;11.18;;;;;;;;;;4931591;28;20054;-74
2023/04/14 12:50:22;;;;;;;12.07;5.45;;;;;;;;;;4930690;28;20051;-75
2023/04/14 12:52:49;;;;;;;8.63;5.43;;;;;;;;;;4925948;28;20051;-76
2023/04/14 12:55:20;;;;;;;10.07;5.68;;;;;;;;;;4930186;28;20118;-75
2023/04/14 12:57:49;;;;;;;19.02;6.03;;;;;;;;;;4927561;28;20765;-76
2023/04/14 13:00:16;;;;;;;7.68;3.55;;;;;;;;;;4927800;29;20567;-76
2023/04/14 13:02:44;;;;;;;9.07;5.95;;;;;;;;;;4935555;28;20066;-76
2023/04/14 13:05:12;;;;;;;6.03;3.60;;;;;;;;;;4932116;28;20048;-77
2023/04/14 13:07:41;;;;;;;5.65;3.40;;;;;;;;;;4924268;29;20673;-74
2023/04/14 13:10:08;;;;;;;9.80;6.05;;;;;;;;;;4923110;29;20667;-75
2023/04/14 13:12:37;;;;;;;7.80;3.78;;;;;;;;;;4921717;29;20040;-75
2023/04/14 13:15:04;;;;;;;7.32;3.75;;;;;;;;;;4926492;28;20048;-76
2023/04/14 13:17:32;;;;;;;7.55;3.55;;;;;;;;;;4929372;28;20115;-76
2023/04/14 13:19:59;;;;;;;6.22;3.80;;;;;;;;;;4923709;29;20547;-75
2023/04/14 13:22:27;;;;;;;7.47;3.63;;;;;;;;;;4924449;28;20080;-75
2023/04/14 13:24:55;;;;;;;5.65;3.58;;;;;;;;;;4933575;28;20062;-77
2023/04/14 13:27:22;;;;;;;12.75;5.05;;;;;;;;;;4931061;28;20052;-77
2023/04/14 13:29:49;;;;;;;8.13;4.55;;;;;;;;;;4925891;28;20051;-76
2023/04/14 13:32:16;;;;;;;8.40;3.83;;;;;;;;;;4926515;28;20043;-77
2023/04/14 13:34:42;;;;;;;6.75;3.53;;;;;;;;;;4938136;28;20183;-75
2023/04/14 13:37:09;;;;;;;6.57;3.35;;;;;;;;;;4923392;29;20103;-76
2023/04/14 13:39:37;;;;;;;5.32;3.47;;;;;;;;;;4923410;28;20050;-76
2023/04/14 13:42:04;;;;;;;5.35;2.70;;;;;;;;;;4922943;29;20532;-75
2023/04/14 13:44:32;;;;;;;4.45;2.35;;;;;;;;;;4925505;29;20044;-77
2023/04/14 13:46:59;;;;;;;5.88;3.03;;;;;;;;;;4924471;29;20691;-78
2023/04/14 13:49:26;;;;;;;6.50;3.70;;;;;;;;;;4926424;28;20467;-77
2023/04/14 13:51:52;;;;;;;6.00;3.40;;;;;;;;;;4928320;28;20128;-75
2023/04/14 13:54:19;;;;;;;4.97;2.67;;;;;;;;;;4926289;29;20538;-78
2023/04/14 13:56:47;;;;;;;5.60;3.53;;;;;;;;;;4924894;28;20083;-77
2023/04/14 13:59:15;;;;;;;4.65;2.95;;;;;;;;;;4927280;28;20091;-75
2023/04/14 14:01:43;;;;;;;8.10;3.97;;;;;;;;;;4926979;29;20055;-77
2023/04/14 14:04:10;;;;;;;8.52;3.40;;;;;;;;;;4926442;29;20110;-76
2023/04/14 14:06:37;;;;;;;4.63;3.22;;;;;;;;;;4929225;29;20051;-79
2023/04/14 14:09:04;;;;;;;9.45;3.47;;;;;;;;;;4912687;28;20051;-77
2023/04/14 14:11:32;;;;;;;9.68;3.90;;;;;;;;;;4926938;28;20504;-76
2023/04/14 14:13:58;;;;;;;5.93;4.18;;;;;;;;;;4931143;28;20051;-77
2023/04/14 14:16:26;;;;;;;7.35;4.10;;;;;;;;;;4929978;28;20139;-75
2023/04/14 14:18:56;;;;;;;6.38;4.22;;;;;;;;;;4926460;29;20186;-76
2023/04/14 14:21:22;;;;;;;5.50;4.05;;;;;;;;;;4927326;28;20051;-78
2023/04/14 14:23:49;;;;;;;5.10;3.63;;;;;;;;;;4935344;28;20051;-77
2023/04/14 14:26:15;;;;;;;5.82;4.28;;;;;;;;;;4911853;29;20052;-75
2023/04/14 14:28:43;;;;;;;7.28;4.57;;;;;;;;;;4926802;29;20527;-78
2023/04/14 14:31:10;;;;;;;5.80;3.90;;;;;;;;;;4943322;28;21067;-76
2023/04/14 14:33:37;;;;;;;6.20;3.88;;;;;;;;;;4939743;28;20059;-77
2023/04/14 14:36:04;;;;;;;6.75;4.60;;;;;;;;;;4928211;29;20138;-76
2023/04/14 14:38:31;;;;;;;8.90;3.95;;;;;;;;;;4927475;29;20048;-78
2023/04/14 14:40:57;;;;;;;4.75;3.78;;;;;;;;;;4926302;28;20051;-78
2023/04/14 14:43:24;;;;;;;5.70;3.90;;;;;;;;;;4925833;28;20044;-75